Aviation Digital Data Service (ADDS)

Output produced by METARs form (1946 UTC 25 April 2015)
found at http://aviationweather.gov/adds/metars/
 
KGON 251738Z 2518/2618 23013G22KT P6SM FEW050 SCT250 
     FM252100 23009KT P6SM FEW050 SCT250 
     FM260500 36004KT P6SM BKN250 
     FM261600 18008KT P6SM SCT050